Time;durP1;ratioP1;P1;durP2;ratioP2;P2;SDS_P1;SDS_P2;PMS_P1;PMS_P2;Temp;Humidity;BMP_temperature;BMP_pressure;BME280_temperature;BME280_humidity;BME280_pressure;Samples;Min_cycle;Max_cycle;Signal;HPM_P1;HPM_P2
2021/12/22 00:00:48;;;;;;;67.97;30.27;;;-2.30;99.90;;;;;;4996837;28;20046;-67
2021/12/22 00:03:17;;;;;;;70.10;30.00;;;-2.30;99.90;;;;;;4996227;28;20506;-66
2021/12/22 00:05:46;;;;;;;68.55;30.50;;;-2.30;99.90;;;;;;4996950;28;20112;-66
2021/12/22 00:08:14;;;;;;;63.53;30.60;;;-2.30;99.90;;;;;;4997015;28;20053;-66
2021/12/22 00:10:41;;;;;;;67.32;29.63;;;-2.30;99.90;;;;;;4996185;28;20085;-67
2021/12/22 00:13:08;;;;;;;63.25;29.48;;;-2.40;99.90;;;;;;4996681;28;20053;-66
2021/12/22 00:15:35;;;;;;;57.85;28.92;;;-2.40;99.90;;;;;;4996489;28;20412;-66
2021/12/22 00:18:03;;;;;;;63.08;28.48;;;-2.40;99.90;;;;;;4984684;28;20112;-67
2021/12/22 00:20:30;;;;;;;68.40;30.13;;;-2.40;99.90;;;;;;4995704;28;20049;-68
2021/12/22 00:22:59;;;;;;;68.70;28.98;;;-2.40;99.90;;;;;;4996438;28;20145;-66
2021/12/22 00:25:26;;;;;;;64.20;29.45;;;-2.40;99.90;;;;;;4996028;28;20045;-67
2021/12/22 00:27:54;;;;;;;68.97;30.58;;;-2.40;99.90;;;;;;4997011;28;20049;-66
2021/12/22 00:30:23;;;;;;;66.50;31.23;;;-2.40;99.90;;;;;;5010970;28;20046;-67
2021/12/22 00:32:54;;;;;;;65.68;29.98;;;-2.40;99.90;;;;;;4996986;28;20498;-67
2021/12/22 00:35:26;;;;;;;63.75;29.20;;;-2.50;99.90;;;;;;4995838;28;20057;-66
2021/12/22 00:37:53;;;;;;;62.15;29.65;;;-2.50;99.90;;;;;;4996609;28;20050;-66
2021/12/22 00:40:20;;;;;;;65.15;28.65;;;-2.50;99.90;;;;;;4996490;28;20577;-66
2021/12/22 00:42:47;;;;;;;63.10;28.25;;;-2.50;99.90;;;;;;4995258;28;20049;-66
2021/12/22 00:45:15;;;;;;;69.65;30.88;;;-2.50;99.90;;;;;;4996748;28;20068;-67
2021/12/22 00:47:42;;;;;;;65.78;28.95;;;-2.40;99.90;;;;;;4996351;28;20270;-66
2021/12/22 00:50:09;;;;;;;67.38;31.88;;;-2.50;99.90;;;;;;4995015;28;20038;-67
2021/12/22 00:52:36;;;;;;;58.88;27.60;;;-2.40;99.90;;;;;;4996694;28;20049;-67
2021/12/22 00:55:02;;;;;;;;;;;-2.40;99.90;;;;;;4992867;28;20054;-66
2021/12/22 00:57:31;;;;;;;60.92;27.58;;;-2.40;99.90;;;;;;4996438;28;19979;-67
2021/12/22 00:59:58;;;;;;;64.93;30.38;;;-2.40;99.90;;;;;;4995330;28;20132;-67
2021/12/22 01:02:25;;;;;;;;;;;-2.40;99.90;;;;;;4997259;28;20057;-67
2021/12/22 01:04:53;;;;;;;67.22;29.60;;;-2.40;99.90;;;;;;4995868;28;20032;-68
2021/12/22 01:07:20;;;;;;;69.15;31.20;;;-2.40;99.90;;;;;;4995856;28;20534;-67
2021/12/22 01:09:47;;;;;;;;;;;-2.40;99.90;;;;;;4996881;28;20057;-66
2021/12/22 01:12:14;;;;;;;74.40;31.83;;;-2.40;99.90;;;;;;5010445;28;19926;-67
2021/12/22 01:14:41;;;;;;;69.60;30.30;;;-2.40;99.90;;;;;;4996530;28;20045;-68
2021/12/22 01:17:12;;;;;;;72.97;31.20;;;-2.50;99.90;;;;;;4993308;28;20177;-67
2021/12/22 01:20:19;;;;;;;70.07;32.42;;;-2.50;99.90;;;;;;4994925;28;20350;-67
2021/12/22 01:22:47;;;;;;;66.65;30.48;;;-2.50;99.90;;;;;;4995861;28;20350;-68
2021/12/22 01:25:18;;;;;;;74.22;31.75;;;-2.50;99.90;;;;;;4996037;28;20042;-67
2021/12/22 01:27:45;;;;;;;66.00;31.35;;;-2.50;99.90;;;;;;4995562;28;20053;-67
2021/12/22 01:30:14;;;;;;;64.18;32.47;;;-2.50;99.90;;;;;;4994951;28;20123;-67
2021/12/22 01:32:42;;;;;;;77.20;32.85;;;-2.50;99.90;;;;;;4996297;28;20062;-66
2021/12/22 01:35:12;;;;;;;72.70;30.15;;;-2.50;99.90;;;;;;4994643;28;20108;-67
2021/12/22 01:37:40;;;;;;;70.47;32.90;;;-2.50;99.90;;;;;;4995965;28;20066;-67
2021/12/22 01:40:08;;;;;;;69.43;31.73;;;-2.50;99.90;;;;;;4995316;28;20097;-67
2021/12/22 01:42:36;;;;;;;67.75;30.98;;;-2.50;99.90;;;;;;4995876;28;20433;-67
2021/12/22 01:50:42;;;;;;;69.65;30.15;;;-2.60;99.90;;;;;;4994739;28;19925;-67
2021/12/22 01:53:20;;;;;;;68.50;30.15;;;-2.60;99.90;;;;;;4995717;28;20050;-67
2021/12/22 01:56:05;;;;;;;64.57;28.77;;;-2.60;99.90;;;;;;4992044;28;20096;-67
2021/12/22 01:58:36;;;;;;;62.83;28.02;;;-2.60;99.90;;;;;;4996198;28;20559;-67
2021/12/22 02:01:05;;;;;;;65.88;30.40;;;-2.60;99.90;;;;;;4996627;28;20061;-67
2021/12/22 02:03:32;;;;;;;62.15;27.45;;;-2.60;99.90;;;;;;4998456;28;20458;-67
2021/12/22 02:05:59;;;;;;;63.50;26.35;;;-2.60;99.90;;;;;;5007676;28;20495;-67
2021/12/22 02:08:26;;;;;;;60.75;28.02;;;-2.70;99.90;;;;;;4999597;28;20390;-67
2021/12/22 02:10:53;;;;;;;;;;;-2.70;99.90;;;;;;4998822;28;20500;-67
2021/12/22 02:13:26;;;;;;;75.78;30.23;;;-2.60;99.90;;;;;;4998992;28;19933;-67
2021/12/22 02:15:53;;;;;;;64.72;28.42;;;-2.70;99.90;;;;;;4999506;28;20349;-67
2021/12/22 02:18:21;;;;;;;61.05;30.20;;;-2.70;99.90;;;;;;4986337;28;20385;-66
2021/12/22 02:20:50;;;;;;;60.28;28.38;;;-2.70;99.90;;;;;;4999608;28;20100;-67
2021/12/22 02:23:17;;;;;;;72.97;30.52;;;-2.70;99.90;;;;;;5000365;28;20086;-67
2021/12/22 02:25:52;;;;;;;75.45;33.65;;;-2.70;99.90;;;;;;4998570;28;20062;-67
2021/12/22 02:28:27;;;;;;;77.88;31.92;;;-2.70;99.90;;;;;;4998752;28;20463;-67
2021/12/22 02:30:54;;;;;;;72.30;31.63;;;-2.70;99.90;;;;;;4997811;28;20045;-67
2021/12/22 02:36:11;;;;;;;68.30;29.98;;;-2.70;99.90;;;;;;4998952;28;20128;-67
2021/12/22 02:38:42;;;;;;;76.00;34.40;;;-2.80;99.90;;;;;;4998822;28;20053;-67
2021/12/22 02:41:12;;;;;;;69.32;30.27;;;-2.80;99.90;;;;;;4997511;28;20512;-67
2021/12/22 02:43:46;;;;;;;71.68;31.45;;;-2.80;99.90;;;;;;4998896;28;20128;-66
2021/12/22 02:46:15;;;;;;;76.18;31.02;;;-2.80;99.90;;;;;;4998567;28;20053;-67
2021/12/22 02:48:43;;;;;;;70.93;30.52;;;-2.80;99.90;;;;;;4997754;28;20057;-66
2021/12/22 02:51:10;;;;;;;77.60;34.15;;;-2.90;99.90;;;;;;4997491;28;20066;-67
2021/12/22 02:53:45;;;;;;;71.88;30.83;;;-2.80;99.90;;;;;;4998946;28;20100;-67
2021/12/22 02:56:26;;;;;;;70.85;29.90;;;-2.90;99.90;;;;;;4995290;28;20053;-67
2021/12/22 03:03:58;;;;;;;71.97;30.52;;;-2.80;99.90;;;;;;4998493;28;20503;-67
2021/12/22 03:06:35;;;;;;;66.72;30.48;;;-2.80;99.90;;;;;;4998111;28;20499;-67
2021/12/22 03:09:19;;;;;;;61.27;26.07;;;-2.80;99.90;;;;;;4998069;28;20049;-67
2021/12/22 03:11:46;;;;;;;70.28;31.08;;;-2.80;99.90;;;;;;4996819;28;20050;-66
2021/12/22 03:14:15;;;;;;;69.57;28.88;;;-2.80;99.90;;;;;;4998171;28;20049;-67
2021/12/22 03:16:42;;;;;;;63.67;29.00;;;-2.80;99.90;;;;;;4995254;28;20046;-67
2021/12/22 03:19:11;;;;;;;65.35;28.15;;;-2.80;99.90;;;;;;4996915;28;20085;-66
2021/12/22 03:21:40;;;;;;;65.68;28.90;;;-2.80;99.90;;;;;;4998393;28;20074;-67
2021/12/22 03:24:08;;;;;;;75.13;31.33;;;-2.80;99.90;;;;;;4999039;28;20041;-67
2021/12/22 03:26:41;;;;;;;74.95;32.47;;;-2.80;99.90;;;;;;4999311;28;20582;-67
2021/12/22 03:29:14;;;;;;;61.85;27.83;;;-2.80;99.90;;;;;;4998274;28;20042;-67
2021/12/22 03:31:42;;;;;;;63.42;29.00;;;-2.80;99.90;;;;;;4999361;28;20054;-67
2021/12/22 03:34:10;;;;;;;72.28;29.85;;;-2.70;99.90;;;;;;4997053;28;20053;-67
2021/12/22 03:36:37;;;;;;;69.45;31.35;;;-2.80;99.90;;;;;;4999267;28;20118;-66
2021/12/22 03:39:05;;;;;;;77.68;33.40;;;-2.70;99.90;;;;;;4998639;28;20057;-67
2021/12/22 03:41:34;;;;;;;75.78;32.67;;;-2.80;99.90;;;;;;4998274;28;20168;-67
2021/12/22 03:44:03;;;;;;;74.60;32.78;;;-2.80;99.90;;;;;;4999076;28;20503;-66
2021/12/22 03:46:31;;;;;;;72.57;31.65;;;-2.80;99.90;;;;;;4998999;28;20053;-67
2021/12/22 03:48:58;;;;;;;77.05;32.28;;;-2.80;99.90;;;;;;4998117;28;20100;-67
2021/12/22 03:51:26;;;;;;;78.22;32.58;;;-2.90;99.90;;;;;;4997267;28;20053;-66
2021/12/22 03:53:54;;;;;;;71.88;31.27;;;-2.90;99.90;;;;;;4996259;28;20057;-68
2021/12/22 03:56:21;;;;;;;69.05;30.08;;;-3.00;99.90;;;;;;4995072;28;20046;-67
2021/12/22 03:58:48;;;;;;;73.20;31.17;;;-3.00;99.90;;;;;;4997581;28;20125;-67
2021/12/22 04:01:15;;;;;;;77.93;33.72;;;-3.00;99.90;;;;;;4995416;28;20096;-67
2021/12/22 04:03:46;;;;;;;70.68;29.77;;;-3.00;99.90;;;;;;4996421;28;20042;-67
2021/12/22 04:06:12;;;;;;;75.38;30.95;;;-3.00;99.90;;;;;;4995700;28;20122;-67
2021/12/22 04:08:39;;;;;;;79.20;33.45;;;-3.00;99.90;;;;;;4997367;28;20050;-67
2021/12/22 04:11:06;;;;;;;71.60;32.13;;;-3.00;99.90;;;;;;4996107;28;20173;-69
2021/12/22 04:13:33;;;;;;;77.38;33.90;;;-3.00;99.90;;;;;;4996985;28;20050;-67
2021/12/22 04:15:59;;;;;;;;;;;-2.90;99.90;;;;;;4998504;28;20392;-67
2021/12/22 04:18:26;;;;;;;73.75;32.25;;;-2.90;99.90;;;;;;4983726;28;19995;-67
2021/12/22 04:20:53;;;;;;;77.68;33.70;;;-2.90;99.90;;;;;;4995900;28;20566;-68
2021/12/22 04:23:20;;;;;;;77.97;32.47;;;-2.90;99.90;;;;;;4996052;28;20108;-67
2021/12/22 04:25:47;;;;;;;72.57;30.85;;;-2.90;99.90;;;;;;4996462;28;20046;-67
2021/12/22 04:28:14;;;;;;;78.97;32.60;;;-2.90;99.90;;;;;;4997343;28;20049;-68
2021/12/22 04:30:49;;;;;;;80.80;31.95;;;-2.90;99.90;;;;;;4996076;28;20123;-67
2021/12/22 04:33:19;;;;;;;77.25;33.55;;;-2.90;99.90;;;;;;4996797;28;20053;-67
2021/12/22 04:35:48;;;;;;;74.55;33.72;;;-2.90;99.90;;;;;;4996830;28;20053;-67
2021/12/22 04:38:15;;;;;;;70.88;32.33;;;-2.90;99.90;;;;;;4997539;28;20442;-67
2021/12/22 04:40:42;;;;;;;78.40;34.80;;;-2.90;99.90;;;;;;5012102;28;20053;-68
2021/12/22 04:43:09;;;;;;;69.78;32.50;;;-2.90;99.90;;;;;;4996562;28;20074;-67
2021/12/22 04:45:36;;;;;;;73.40;32.30;;;-2.90;99.90;;;;;;4997155;28;20374;-68
2021/12/22 04:48:03;;;;;;;83.40;34.47;;;-2.90;99.90;;;;;;4996640;28;20100;-69
2021/12/22 04:50:32;;;;;;;69.65;30.08;;;-2.90;99.90;;;;;;4996377;28;20058;-67
2021/12/22 04:53:09;;;;;;;71.15;29.75;;;-2.90;99.90;;;;;;4996313;28;20054;-67
2021/12/22 04:55:35;;;;;;;65.28;30.08;;;-2.90;99.90;;;;;;4992139;28;20115;-67
2021/12/22 04:58:03;;;;;;;68.93;32.97;;;-2.90;99.90;;;;;;4997452;28;20095;-67
2021/12/22 05:00:33;;;;;;;69.18;29.45;;;-2.90;99.90;;;;;;4996425;28;20053;-67
2021/12/22 05:03:00;;;;;;;61.65;28.08;;;-2.90;99.90;;;;;;4996208;28;20041;-67
2021/12/22 05:05:27;;;;;;;67.28;30.35;;;-2.90;99.90;;;;;;4995905;28;20053;-67
2021/12/22 05:07:54;;;;;;;73.35;33.80;;;-2.90;99.90;;;;;;4996440;28;20056;-68
2021/12/22 05:10:22;;;;;;;79.00;32.85;;;-2.90;99.90;;;;;;4994931;28;20081;-66
2021/12/22 05:12:49;;;;;;;71.72;34.05;;;-2.90;99.90;;;;;;4995734;28;20045;-67
2021/12/22 05:15:20;;;;;;;80.60;34.00;;;-2.90;99.90;;;;;;5010719;28;20538;-67
2021/12/22 05:20:23;;;;;;;71.88;31.88;;;-3.00;99.90;;;;;;4976347;28;20084;-67
2021/12/22 05:22:50;;;;;;;78.05;31.42;;;-3.00;99.90;;;;;;4976473;28;20055;-67
2021/12/22 05:25:17;;;;;;;83.60;36.22;;;-3.00;99.90;;;;;;4976553;28;20046;-67
2021/12/22 05:27:44;;;;;;;85.35;35.65;;;-3.00;99.90;;;;;;4974586;28;20136;-66
2021/12/22 05:30:12;;;;;;;;;;;-3.00;99.90;;;;;;4976186;28;20334;-66
2021/12/22 05:32:40;;;;;;;70.78;30.95;;;-3.00;99.90;;;;;;4976297;28;19925;-67
2021/12/22 05:35:09;;;;;;;78.18;31.92;;;-3.00;99.90;;;;;;4977252;28;20207;-66
2021/12/22 05:37:36;;;;;;;75.07;30.52;;;-3.00;99.90;;;;;;5000918;28;20466;-67
2021/12/22 05:40:06;;;;;;;76.45;32.22;;;-3.00;99.90;;;;;;4998878;28;20052;-67
2021/12/22 05:42:35;;;;;;;77.82;34.38;;;-3.00;99.90;;;;;;5000149;28;20054;-67
2021/12/22 05:45:02;;;;;;;78.97;32.83;;;-3.10;99.90;;;;;;5000043;28;20128;-67
2021/12/22 05:47:29;;;;;;;78.13;35.53;;;-3.00;99.90;;;;;;4999536;28;20502;-67
2021/12/22 05:49:56;;;;;;;;;;;-3.00;99.90;;;;;;4999441;28;20361;-67
2021/12/22 05:52:23;;;;;;;83.40;36.45;;;-3.00;99.90;;;;;;4999431;28;19987;-67
2021/12/22 05:54:49;;;;;;;88.45;37.63;;;-3.00;99.90;;;;;;4994189;28;20065;-68
2021/12/22 05:57:16;;;;;;;78.93;35.17;;;-3.00;99.90;;;;;;4979869;28;20140;-67
2021/12/22 05:59:43;;;;;;;78.00;35.05;;;-3.00;99.90;;;;;;4980938;28;20054;-67
2021/12/22 06:02:10;;;;;;;;;;;-3.00;99.90;;;;;;4981279;28;20128;-68
2021/12/22 06:04:37;;;;;;;97.72;35.53;;;-3.00;99.90;;;;;;4981334;28;19926;-67
2021/12/22 06:07:04;;;;;;;84.50;33.40;;;-3.00;99.90;;;;;;4979923;28;20353;-68
2021/12/22 06:09:31;;;;;;;78.72;33.50;;;-3.00;99.90;;;;;;4978694;28;20077;-67
2021/12/22 06:11:58;;;;;;;88.03;35.65;;;-3.10;99.90;;;;;;4979313;28;20043;-58
2021/12/22 06:14:25;;;;;;;83.90;36.00;;;-3.10;99.90;;;;;;4980716;28;20525;-59
2021/12/22 06:16:51;;;;;;;;;;;-3.10;99.90;;;;;;4999033;28;20104;-59
2021/12/22 06:19:20;;;;;;;71.80;31.98;;;-3.20;99.90;;;;;;4997233;28;19968;-59
2021/12/22 06:21:47;;;;;;;77.60;32.85;;;-3.10;99.90;;;;;;4999361;28;20574;-59
2021/12/22 06:24:13;;;;;;;75.13;31.73;;;-3.10;99.90;;;;;;4998390;28;20127;-59
2021/12/22 06:26:40;;;;;;;75.90;33.83;;;-3.10;99.90;;;;;;4999215;28;20582;-59
2021/12/22 06:29:07;;;;;;;;;;;-3.10;99.90;;;;;;4998410;28;20073;-59
2021/12/22 06:31:34;;;;;;;70.95;31.30;;;-3.10;99.90;;;;;;4998098;28;19956;-59
2021/12/22 06:34:00;;;;;;;84.43;35.25;;;-3.10;99.90;;;;;;4999081;28;20054;-59
2021/12/22 06:36:28;;;;;;;73.32;31.55;;;-3.10;99.90;;;;;;4998724;28;20046;-59
2021/12/22 06:38:55;;;;;;;81.75;36.05;;;-3.10;99.90;;;;;;4998116;28;20050;-59
2021/12/22 06:41:22;;;;;;;82.95;34.70;;;-3.00;99.90;;;;;;4998299;28;20046;-59
2021/12/22 06:43:49;;;;;;;80.80;34.22;;;-3.00;99.90;;;;;;4998279;28;20459;-59
2021/12/22 06:46:16;;;;;;;90.55;37.13;;;-3.10;99.90;;;;;;4997700;28;20042;-58
2021/12/22 06:48:43;;;;;;;71.80;32.90;;;-3.00;99.90;;;;;;4998949;28;20420;-58
2021/12/22 06:51:09;;;;;;;;;;;-3.00;99.90;;;;;;4998394;28;20108;-59
2021/12/22 06:53:36;;;;;;;74.32;30.92;;;-3.00;99.90;;;;;;4997949;28;19933;-59
2021/12/22 06:56:04;;;;;;;75.63;33.80;;;-3.00;99.90;;;;;;4995597;28;20056;-58
2021/12/22 06:58:31;;;;;;;67.53;30.35;;;-3.00;99.90;;;;;;4999388;28;20532;-59
2021/12/22 07:00:59;;;;;;;74.50;32.50;;;-3.00;99.90;;;;;;4998497;28;20054;-59
2021/12/22 07:03:27;;;;;;;74.18;31.67;;;-3.00;99.90;;;;;;4999088;28;20457;-59
2021/12/22 07:05:54;;;;;;;81.45;35.08;;;-2.90;99.90;;;;;;4998775;28;20875;-59
2021/12/22 07:08:21;;;;;;;83.57;35.58;;;-2.90;99.90;;;;;;4999109;28;20671;-60
2021/12/22 07:10:47;;;;;;;80.90;35.47;;;-2.90;99.90;;;;;;4998291;28;20558;-58
2021/12/22 07:13:14;;;;;;;86.85;37.22;;;-2.90;99.90;;;;;;4998286;28;20046;-59
2021/12/22 07:15:43;;;;;;;87.47;36.40;;;-2.90;99.90;;;;;;4997755;28;20096;-59
2021/12/22 07:18:12;;;;;;;72.50;32.88;;;-2.90;99.90;;;;;;4985127;28;20519;-59
2021/12/22 07:20:40;;;;;;;73.38;33.85;;;-2.90;99.90;;;;;;4997519;28;20046;-59
2021/12/22 07:23:07;;;;;;;84.80;35.42;;;-2.90;99.90;;;;;;4998193;28;20142;-59
2021/12/22 07:25:34;;;;;;;80.28;34.53;;;-2.90;99.90;;;;;;4999443;28;20096;-59
2021/12/22 07:28:01;;;;;;;87.55;35.80;;;-2.90;99.90;;;;;;4998040;28;20116;-59
2021/12/22 07:30:28;;;;;;;84.13;35.53;;;-2.90;99.90;;;;;;4995041;28;20128;-59
2021/12/22 07:32:59;;;;;;;75.00;33.72;;;-2.90;99.90;;;;;;4997749;28;20145;-59
2021/12/22 07:35:47;;;;;;;80.57;35.13;;;-2.90;99.90;;;;;;4998005;28;20723;-59
2021/12/22 07:38:27;;;;;;;86.70;36.22;;;-2.80;99.90;;;;;;4998191;28;20828;-55
2021/12/22 07:40:58;;;;;;;89.38;35.97;;;-2.80;99.90;;;;;;4997901;28;20730;-56
2021/12/22 07:43:27;;;;;;;75.82;32.60;;;-2.80;99.90;;;;;;4998563;28;20060;-56
2021/12/22 07:45:54;;;;;;;89.85;35.67;;;-2.80;99.90;;;;;;4998532;28;20071;-55
2021/12/22 07:48:22;;;;;;;76.85;33.38;;;-2.80;99.90;;;;;;4999005;28;20049;-55
2021/12/22 07:50:49;;;;;;;79.65;34.63;;;-2.80;99.90;;;;;;4996286;28;20111;-55
2021/12/22 07:53:16;;;;;;;76.57;34.20;;;-2.80;99.90;;;;;;4997244;28;20046;-56
2021/12/22 07:55:42;;;;;;;83.30;34.88;;;-2.80;99.90;;;;;;4992894;28;20555;-55
2021/12/22 07:58:09;;;;;;;82.47;34.10;;;-2.90;99.90;;;;;;4996762;28;20042;-55
2021/12/22 08:00:36;;;;;;;75.40;33.63;;;-2.90;99.90;;;;;;4994897;28;20042;-59
2021/12/22 08:03:04;;;;;;;78.30;33.13;;;-2.90;99.90;;;;;;4985674;28;20049;-54
2021/12/22 08:05:52;;;;;;;86.45;37.35;;;-2.90;99.90;;;;;;4977548;28;20482;-55
2021/12/22 08:08:19;;;;;;;79.78;34.25;;;-2.90;99.90;;;;;;4992180;28;20583;-55
2021/12/22 08:10:49;;;;;;;77.63;34.92;;;-3.00;99.90;;;;;;4976791;28;20411;-53
2021/12/22 08:13:16;;;;;;;79.60;34.50;;;-3.00;99.90;;;;;;4974635;28;20985;-55
2021/12/22 08:15:44;;;;;;;80.68;34.35;;;-3.00;99.90;;;;;;4977575;28;20050;-57
2021/12/22 08:18:11;;;;;;;74.97;30.92;;;-3.10;99.90;;;;;;4990500;28;20061;-55
2021/12/22 08:20:38;;;;;;;78.53;33.08;;;-3.00;99.90;;;;;;4995867;28;20409;-53
2021/12/22 08:23:05;;;;;;;87.60;36.80;;;-3.00;99.90;;;;;;4996859;28;20045;-55
2021/12/22 08:25:32;;;;;;;83.10;33.90;;;-3.00;99.90;;;;;;4997287;28;20034;-55
2021/12/22 08:27:59;;;;;;;86.82;33.95;;;-3.00;99.90;;;;;;4996837;28;20045;-55
2021/12/22 08:30:27;;;;;;;76.13;32.65;;;-3.00;99.90;;;;;;4996132;28;20071;-55
2021/12/22 08:32:55;;;;;;;76.82;33.55;;;-3.00;99.90;;;;;;4997403;28;20123;-56
2021/12/22 08:35:25;;;;;;;80.50;33.83;;;-3.00;99.90;;;;;;4996400;28;20563;-56
2021/12/22 08:40:38;;;;;;;88.30;37.30;;;-3.00;99.90;;;;;;4976029;28;20038;-54
2021/12/22 08:43:04;;;;;;;84.78;36.42;;;-3.00;99.90;;;;;;4976430;28;20068;-53
2021/12/22 08:45:31;;;;;;;;;;;-2.90;99.90;;;;;;4977493;28;20585;-52
2021/12/22 08:47:58;;;;;;;84.65;35.95;;;-2.90;99.90;;;;;;4976666;28;19956;-53
2021/12/22 08:50:26;;;;;;;;;;;-2.90;99.90;;;;;;4976519;28;20173;-54
2021/12/22 08:52:54;;;;;;;;;;;-2.90;99.90;;;;;;4976979;28;19925;-55
2021/12/22 08:55:21;;;;;;;93.78;35.25;;;-2.80;99.90;;;;;;4985148;28;19929;-56
2021/12/22 08:57:47;;;;;;;93.80;36.42;;;-2.80;99.90;;;;;;4976241;28;20046;-56
2021/12/22 09:00:15;;;;;;;95.10;39.55;;;-2.80;99.90;;;;;;4974304;28;20414;-59
2021/12/22 09:02:44;;;;;;;98.07;40.20;;;-2.90;99.90;;;;;;4976368;28;20137;-57
2021/12/22 09:05:12;;;;;;;88.38;37.70;;;-2.90;99.90;;;;;;4975770;28;20046;-58
2021/12/22 09:07:38;;;;;;;94.25;38.17;;;-2.90;99.90;;;;;;4976532;28;20128;-57
2021/12/22 09:10:05;;;;;;;;;;;-2.90;99.90;;;;;;4976424;28;20046;-56
2021/12/22 09:12:32;;;;;;;91.90;37.20;;;-2.90;99.90;;;;;;4976267;28;20024;-55
2021/12/22 09:14:59;;;;;;;75.68;35.10;;;-2.90;99.90;;;;;;4976443;28;20069;-55
2021/12/22 09:17:26;;;;;;;80.05;33.85;;;-2.90;99.90;;;;;;4984662;28;20471;-56
2021/12/22 09:19:54;;;;;;;81.78;36.42;;;-2.90;99.90;;;;;;4994219;28;20148;-56
2021/12/22 09:22:22;;;;;;;72.75;32.00;;;-2.80;99.90;;;;;;4995918;28;20598;-57
2021/12/22 09:24:49;;;;;;;78.88;34.10;;;-2.80;99.90;;;;;;4994902;28;20463;-57
2021/12/22 09:27:16;;;;;;;88.95;37.08;;;-2.80;99.90;;;;;;4994894;28;20140;-55
2021/12/22 09:29:43;;;;;;;84.80;36.67;;;-2.70;99.90;;;;;;5010010;28;20175;-54
2021/12/22 09:32:14;;;;;;;91.97;40.13;;;-2.60;99.90;;;;;;4995458;28;20037;-54
2021/12/22 09:34:45;;;;;;;77.50;35.00;;;-2.60;99.90;;;;;;4995430;28;20113;-55
2021/12/22 09:37:12;;;;;;;70.53;31.55;;;-2.60;99.90;;;;;;4995266;28;20069;-54
2021/12/22 09:39:39;;;;;;;81.10;35.58;;;-2.60;99.90;;;;;;4995707;28;20084;-54
2021/12/22 09:42:06;;;;;;;74.80;33.50;;;-2.60;99.90;;;;;;4994978;28;20127;-54
2021/12/22 09:44:38;;;;;;;83.90;37.90;;;-2.60;99.90;;;;;;4996416;28;20107;-54
2021/12/22 09:47:05;;;;;;;78.95;34.95;;;-2.50;99.90;;;;;;4996073;28;20057;-53
2021/12/22 09:52:16;;;;;;;79.25;36.13;;;-2.50;99.90;;;;;;4995536;28;20270;-59
2021/12/22 09:54:43;;;;;;;83.93;36.83;;;-2.50;99.90;;;;;;4992400;28;20092;-58
2021/12/22 09:57:11;;;;;;;85.97;37.05;;;-2.50;99.90;;;;;;4995778;28;20049;-56
2021/12/22 09:59:40;;;;;;;83.40;35.58;;;-2.40;99.90;;;;;;4994781;28;20136;-58
2021/12/22 10:02:07;;;;;;;91.75;40.08;;;-2.40;99.90;;;;;;4995966;28;20063;-58
2021/12/22 10:04:34;;;;;;;82.78;36.20;;;-2.40;99.90;;;;;;4995025;28;20116;-56
2021/12/22 10:07:05;;;;;;;94.88;37.05;;;-2.40;99.90;;;;;;4996060;28;20050;-54
2021/12/22 10:09:31;;;;;;;87.60;38.33;;;-2.40;99.90;;;;;;4996195;28;20054;-55
2021/12/22 10:12:04;;;;;;;;;;;-2.40;99.90;;;;;;4996427;28;20049;-56
2021/12/22 10:14:53;;;;;;;84.93;35.75;;;-2.40;99.90;;;;;;4996211;28;19925;-56
2021/12/22 10:17:29;;;;;;;82.38;35.40;;;-2.40;99.90;;;;;;4986908;28;20074;-57
2021/12/22 10:20:03;;;;;;;86.57;36.83;;;-2.40;99.90;;;;;;4990861;28;20057;-56
2021/12/22 10:22:32;;;;;;;86.63;38.17;;;-2.30;99.90;;;;;;4997148;28;20046;-56
2021/12/22 10:25:14;;;;;;;85.63;35.70;;;-2.30;99.90;;;;;;4998768;28;20053;-56
2021/12/22 10:27:44;;;;;;;82.95;34.90;;;-2.30;99.90;;;;;;4998493;28;20045;-56
2021/12/22 10:30:32;;;;;;;83.55;35.83;;;-2.30;99.90;;;;;;4998258;28;20049;-54
2021/12/22 10:33:14;;;;;;;89.95;36.33;;;-2.30;99.90;;;;;;4979870;28;20432;-55
2021/12/22 10:35:44;;;;;;;86.82;36.28;;;-2.20;99.90;;;;;;4998596;28;20054;-55
2021/12/22 10:38:13;;;;;;;81.50;35.35;;;-2.20;99.90;;;;;;4998464;28;20050;-54
2021/12/22 10:40:46;;;;;;;88.20;36.47;;;-2.20;99.90;;;;;;4998307;28;20044;-53
2021/12/22 10:43:21;;;;;;;83.32;35.10;;;-2.20;99.90;;;;;;4997773;28;20045;-56
2021/12/22 10:45:51;;;;;;;73.85;33.33;;;-2.20;99.90;;;;;;4998802;28;20045;-56
2021/12/22 10:51:11;;;;;;;82.05;36.15;;;-2.20;99.90;;;;;;4997839;28;20046;-54
2021/12/22 10:53:46;;;;;;;86.05;37.08;;;-2.10;99.90;;;;;;5008120;28;20057;-54
2021/12/22 10:56:29;;;;;;;87.13;37.45;;;-2.10;99.90;;;;;;4993986;28;20042;-55
2021/12/22 10:59:01;;;;;;;85.75;37.13;;;-2.10;99.90;;;;;;4995986;28;20510;-56
2021/12/22 11:01:30;;;;;;;86.40;36.67;;;-2.10;99.90;;;;;;4997530;28;20161;-56
2021/12/22 11:04:05;;;;;;;83.57;38.47;;;-2.10;99.90;;;;;;4998017;28;20128;-56
2021/12/22 11:06:37;;;;;;;81.75;34.53;;;-2.10;99.90;;;;;;4998396;28;20132;-56
2021/12/22 11:09:13;;;;;;;91.30;36.50;;;-2.10;99.90;;;;;;4998071;28;20041;-56
2021/12/22 11:12:00;;;;;;;83.03;34.20;;;-2.10;99.90;;;;;;4996934;28;20292;-56
2021/12/22 11:14:33;;;;;;;80.90;35.17;;;-2.10;99.90;;;;;;4991348;28;20456;-56
2021/12/22 11:16:59;;;;;;;76.30;36.70;;;-2.20;99.90;;;;;;4995439;28;20110;-56
2021/12/22 11:19:29;;;;;;;84.70;37.83;;;-2.20;99.90;;;;;;4996296;28;20050;-56
2021/12/22 11:22:01;;;;;;;81.00;36.70;;;-2.20;99.90;;;;;;4997909;28;20054;-55
2021/12/22 11:24:29;;;;;;;82.80;35.85;;;-2.20;99.90;;;;;;4997830;28;20139;-56
2021/12/22 11:26:57;;;;;;;83.18;35.88;;;-2.20;99.90;;;;;;4997088;28;20096;-56
2021/12/22 11:29:24;;;;;;;81.13;34.53;;;-2.30;99.90;;;;;;4997689;28;20038;-55
2021/12/22 11:31:52;;;;;;;94.00;36.58;;;-2.20;99.90;;;;;;4997417;28;20085;-56
2021/12/22 11:34:20;;;;;;;83.22;37.25;;;-2.30;99.90;;;;;;4996697;28;20562;-55
2021/12/22 11:36:49;;;;;;;85.07;36.13;;;-2.30;99.90;;;;;;4996144;28;20104;-56
2021/12/22 11:39:16;;;;;;;85.80;36.13;;;-2.30;99.90;;;;;;4997597;28;20104;-56
2021/12/22 11:41:54;;;;;;;88.78;35.95;;;-2.30;99.90;;;;;;4998027;28;20558;-56
2021/12/22 11:44:21;;;;;;;;;;;-2.30;99.90;;;;;;4999088;28;20050;-56
2021/12/22 11:46:48;;;;;;;81.10;32.17;;;-2.30;99.90;;;;;;4997497;28;20162;-56
2021/12/22 11:49:20;;;;;;;78.72;31.50;;;-2.40;99.90;;;;;;4996093;28;20057;-56
2021/12/22 11:51:47;;;;;;;79.82;33.45;;;-2.30;99.90;;;;;;4996717;28;20076;-56
2021/12/22 11:54:14;;;;;;;78.05;34.13;;;-2.40;99.90;;;;;;4993227;28;20448;-55
2021/12/22 11:56:48;;;;;;;73.28;32.50;;;-2.40;99.90;;;;;;4996567;28;20037;-56
2021/12/22 11:59:38;;;;;;;85.38;35.13;;;-2.40;99.90;;;;;;4995994;28;20463;-56
2021/12/22 12:02:18;;;;;;;81.45;33.92;;;-2.40;99.90;;;;;;4996671;28;20769;-56
2021/12/22 12:04:48;;;;;;;79.20;33.47;;;-2.40;99.90;;;;;;5010847;28;20460;-56
2021/12/22 12:07:42;;;;;;;85.43;33.80;;;-2.40;99.90;;;;;;4995827;28;20057;-55
2021/12/22 12:10:42;;;;;;;81.80;34.58;;;-2.40;99.90;;;;;;4994507;28;20038;-55
2021/12/22 12:13:22;;;;;;;78.95;33.70;;;-2.30;99.90;;;;;;5011770;28;20421;-55
2021/12/22 12:21:58;;;;;;;78.55;32.65;;;-2.20;99.90;;;;;;4996846;28;20586;-55
2021/12/22 12:24:48;;;;;;;66.70;30.42;;;-2.10;99.90;;;;;;4996673;28;20931;-55
2021/12/22 12:27:46;;;;;;;77.85;33.47;;;-2.10;99.90;;;;;;4997094;28;20123;-54
2021/12/22 12:30:41;;;;;;;80.80;31.80;;;-2.10;99.90;;;;;;4995789;28;20088;-54
2021/12/22 12:33:10;;;;;;;70.40;32.38;;;-2.10;99.90;;;;;;4996758;28;20045;-54
2021/12/22 12:35:48;;;;;;;76.60;32.63;;;-2.10;99.90;;;;;;4997053;28;20054;-55
2021/12/22 12:38:30;;;;;;;74.10;31.48;;;-2.10;99.90;;;;;;4996786;28;20054;-55
2021/12/22 12:43:42;;;;;;;76.45;32.70;;;-2.10;99.90;;;;;;4996540;28;20543;-54
2021/12/22 12:46:23;;;;;;;75.10;32.15;;;-2.10;99.90;;;;;;4996898;28;20062;-54
2021/12/22 12:49:16;;;;;;;70.25;30.40;;;-2.00;99.90;;;;;;4995294;28;20431;-55
2021/12/22 12:51:46;;;;;;;75.78;33.58;;;-1.90;99.90;;;;;;4996406;28;20123;-55
2021/12/22 12:54:15;;;;;;;78.32;33.05;;;-1.90;99.90;;;;;;4992173;28;20050;-55
2021/12/22 12:56:50;;;;;;;78.88;33.10;;;-1.80;99.90;;;;;;4996646;28;20054;-54
2021/12/22 12:59:38;;;;;;;70.82;32.30;;;-1.80;99.90;;;;;;4995492;28;20104;-54
2021/12/22 13:02:08;;;;;;;78.55;33.40;;;-1.80;99.90;;;;;;4995834;28;20050;-55
2021/12/22 13:04:41;;;;;;;77.50;32.85;;;-1.80;99.90;;;;;;4996955;28;20050;-55
2021/12/22 13:07:19;;;;;;;78.60;32.53;;;-1.70;99.90;;;;;;4996106;28;20054;-55
2021/12/22 13:09:53;;;;;;;72.10;33.22;;;-1.70;99.90;;;;;;4995494;28;20045;-54
2021/12/22 13:17:50;;;;;;;75.53;34.90;;;-1.70;99.90;;;;;;4983797;28;20046;-56
2021/12/22 13:20:21;;;;;;;73.25;33.03;;;-1.60;99.90;;;;;;4994184;28;20990;-55
2021/12/22 13:22:50;;;;;;;73.05;33.08;;;-1.50;99.90;;;;;;4996088;28;20101;-56
2021/12/22 13:25:25;;;;;;;70.07;31.25;;;-1.50;99.90;;;;;;4995594;28;20267;-55